createdAt,value
2023-02-27T00:04:34.723Z,7.53
2023-02-27T00:09:42.057Z,7.05
2023-02-27T00:14:45.524Z,7.25
2023-02-27T00:19:48.916Z,7.53
2023-02-27T00:24:53.715Z,6.32
2023-02-27T00:35:00.432Z,6.65
2023-02-27T00:40:06.479Z,6.85
2023-02-27T00:45:11.065Z,6.45
2023-02-27T00:50:15.534Z,7.15
2023-02-27T01:00:24.081Z,6.63
2023-02-27T01:05:27.720Z,7.57
2023-02-27T01:10:32.749Z,7.43
2023-02-27T01:15:36.379Z,7.97
2023-02-27T01:20:39.878Z,7.95
2023-02-27T01:25:44.776Z,7.35
2023-02-27T01:30:48.417Z,7.55
2023-02-27T01:35:51.993Z,7.78
2023-02-27T01:40:57.540Z,6.78
2023-02-27T01:46:01.473Z,7.75
2023-02-27T01:51:09.160Z,7.90
2023-02-27T01:56:17.321Z,7.20
2023-02-27T02:01:22.824Z,7.30
2023-02-27T02:06:26.643Z,8.32
2023-02-27T02:11:31.736Z,8.02
2023-02-27T02:17:13.918Z,7.17
2023-02-27T02:22:42.718Z,8.07
2023-02-27T02:28:04.468Z,7.85
2023-02-27T02:33:47.336Z,8.48
2023-02-27T02:39:09.269Z,9.48
2023-02-27T02:44:24.737Z,7.53
2023-02-27T02:49:34.568Z,8.10
2023-02-27T02:54:45.104Z,6.82
2023-02-27T02:59:55.244Z,8.57
2023-02-27T03:05:02.954Z,7.43
2023-02-27T03:10:11.705Z,8.20
2023-02-27T03:15:20.320Z,10.95
2023-02-27T03:20:26.609Z,8.43
2023-02-27T03:25:32.774Z,9.13
2023-02-27T03:30:39.240Z,8.85
2023-02-27T03:35:48.564Z,8.77
2023-02-27T03:41:04.968Z,9.20
2023-02-27T03:46:13.608Z,10.02
2023-02-27T03:51:19.601Z,9.43
2023-02-27T03:56:29.663Z,7.65
2023-02-27T04:01:33.628Z,7.20
2023-02-27T04:06:56.032Z,9.53
2023-02-27T04:12:25.174Z,9.02
2023-02-27T04:17:31.760Z,9.77
2023-02-27T04:22:39.590Z,8.55
2023-02-27T04:27:52.801Z,8.68
2023-02-27T04:33:01.324Z,9.45
2023-02-27T04:38:11.085Z,9.43
2023-02-27T04:43:17.883Z,8.68
2023-02-27T04:48:24.589Z,9.18
2023-02-27T04:53:33.492Z,11.45
2023-02-27T04:58:41.392Z,8.48
2023-02-27T05:03:49.050Z,10.85
2023-02-27T05:09:00.461Z,8.90
2023-02-27T05:14:13.679Z,9.40
2023-02-27T05:19:20.178Z,8.18
2023-02-27T05:24:32.127Z,11.40
2023-02-27T05:29:43.881Z,9.80
2023-02-27T05:34:54.114Z,8.45
2023-02-27T05:39:58.565Z,7.50
2023-02-27T05:45:09.132Z,10.60
2023-02-27T05:50:17.019Z,8.80
2023-02-27T05:55:25.600Z,9.13
2023-02-27T06:00:38.628Z,8.85
2023-02-27T06:05:44.648Z,9.93
2023-02-27T06:10:50.001Z,7.78
2023-02-27T06:15:55.017Z,7.55
2023-02-27T06:20:58.882Z,8.77
2023-02-27T06:26:02.445Z,6.90
2023-02-27T06:31:07.333Z,7.53
2023-02-27T06:36:11.368Z,7.13
2023-02-27T06:41:15.143Z,7.40
2023-02-27T06:46:20.216Z,7.43
2023-02-27T06:51:23.582Z,8.27
2023-02-27T06:56:27.319Z,6.65
2023-02-27T07:01:32.406Z,8.18
2023-02-27T07:07:34.246Z,9.15
2023-02-27T07:11:59.580Z,8.43
2023-02-27T07:17:04.831Z,7.32
2023-02-27T07:22:09.672Z,5.85
2023-02-27T07:27:13.022Z,8.02
2023-02-27T07:32:18.110Z,5.57
2023-02-27T07:37:21.701Z,6.05
2023-02-27T07:42:26.570Z,6.85
2023-02-27T07:47:32.006Z,5.25
2023-02-27T07:52:35.617Z,6.18
2023-02-27T07:57:39.587Z,7.55
2023-02-27T08:02:44.479Z,6.00
2023-02-27T08:12:51.066Z,5.22
2023-02-27T08:17:56.217Z,6.60
2023-02-27T08:22:59.858Z,5.15
2023-02-27T08:28:03.377Z,4.80
2023-02-27T08:33:08.300Z,6.50
2023-02-27T08:43:15.096Z,4.65
2023-02-27T08:48:20.345Z,6.53
2023-02-27T08:53:23.904Z,6.97
2023-02-27T08:58:28.819Z,6.40
2023-02-27T09:08:36.821Z,5.95
2023-02-27T09:13:40.351Z,5.47
2023-02-27T09:18:45.661Z,7.13
2023-02-27T09:23:49.175Z,6.30
2023-02-27T09:28:52.779Z,4.97
2023-02-27T09:33:58.445Z,4.68
2023-02-27T09:39:01.932Z,5.10
2023-02-27T09:44:05.580Z,5.65
2023-02-27T09:49:17.876Z,4.32
2023-02-27T09:54:21.551Z,4.72
2023-02-27T09:59:36.105Z,5.00
2023-02-27T10:04:48.890Z,4.30
2023-02-27T10:10:01.708Z,5.40
2023-02-27T10:15:11.969Z,5.63
2023-02-27T10:20:25.731Z,5.05
2023-02-27T10:25:32.173Z,5.20
2023-02-27T10:30:36.207Z,4.32
2023-02-27T10:35:44.536Z,4.20
2023-02-27T10:40:49.818Z,4.63
2023-02-27T10:45:54.598Z,4.85
2023-02-27T10:51:23.931Z,5.40
2023-02-27T10:56:28.862Z,5.28
2023-02-27T11:01:44.433Z,5.80
2023-02-27T11:06:54.804Z,5.53
2023-02-27T11:12:13.332Z,7.40
2023-02-27T11:17:24.324Z,6.03
2023-02-27T11:22:31.477Z,4.38
2023-02-27T11:27:34.933Z,4.78
2023-02-27T11:32:44.312Z,4.20
2023-02-27T11:37:51.247Z,4.80
2023-02-27T11:42:58.530Z,5.50
2023-02-27T11:48:09.721Z,4.03
2023-02-27T11:53:35.842Z,5.05
2023-02-27T11:58:44.703Z,5.85
2023-02-27T12:03:53.770Z,5.13
2023-02-27T12:09:06.309Z,5.10
2023-02-27T12:14:18.136Z,6.38
2023-02-27T12:19:27.194Z,5.95
2023-02-27T12:24:37.981Z,5.95
2023-02-27T12:29:45.297Z,7.47
2023-02-27T12:34:51.313Z,5.03
2023-02-27T12:39:57.933Z,6.25
2023-02-27T12:45:23.590Z,8.35
2023-02-27T12:50:31.578Z,7.00
2023-02-27T12:55:42.569Z,6.78
2023-02-27T13:00:49.726Z,8.02
2023-02-27T13:06:01.871Z,6.85
2023-02-27T13:11:17.499Z,8.45
2023-02-27T13:16:25.864Z,7.05
2023-02-27T13:21:36.469Z,7.45
2023-02-27T13:26:45.356Z,9.63
2023-02-27T13:31:57.502Z,8.73
2023-02-27T13:37:04.599Z,8.20
2023-02-27T13:42:55.571Z,8.18
2023-02-27T13:47:58.994Z,8.07
2023-02-27T13:53:11.415Z,8.80
2023-02-27T13:58:24.924Z,8.38
2023-02-27T14:03:30.419Z,6.78
2023-02-27T14:08:48.119Z,7.60
2023-02-27T14:14:08.438Z,6.18
2023-02-27T14:19:45.128Z,8.02
2023-02-27T14:25:02.867Z,8.02
2023-02-27T14:30:26.467Z,6.63
2023-02-27T14:35:31.702Z,7.70
2023-02-27T14:40:41.703Z,8.35
2023-02-27T14:45:46.678Z,6.57
2023-02-27T14:50:54.063Z,7.32
2023-02-27T14:55:59.122Z,8.00
2023-02-27T15:01:07.707Z,6.97
2023-02-27T15:06:18.519Z,7.43
2023-02-27T15:11:24.365Z,7.72
2023-02-27T15:16:39.280Z,11.02
2023-02-27T15:21:45.769Z,9.18
2023-02-27T15:26:52.500Z,9.52
2023-02-27T15:31:57.623Z,8.27
2023-02-27T15:37:02.285Z,10.13
2023-02-27T15:42:07.048Z,7.18
2023-02-27T15:47:16.861Z,9.10
2023-02-27T15:52:23.291Z,7.65
2023-02-27T15:57:27.312Z,7.47
2023-02-27T16:02:41.503Z,6.70
2023-02-27T16:07:45.929Z,7.25
2023-02-27T16:12:49.541Z,7.38
2023-02-27T16:18:03.679Z,6.72
2023-02-27T16:23:16.253Z,7.30
2023-02-27T16:28:19.866Z,6.90
2023-02-27T16:33:25.989Z,8.50
2023-02-27T16:38:29.631Z,7.68
2023-02-27T16:43:33.741Z,7.50
2023-02-27T16:48:38.644Z,6.10
2023-02-27T16:58:45.881Z,6.78
2023-02-27T17:03:50.784Z,6.77
2023-02-27T17:08:56.202Z,5.45
2023-02-27T17:13:59.812Z,5.22
2023-02-27T17:19:04.833Z,7.63
2023-02-27T17:24:08.673Z,7.00
2023-02-27T17:29:12.493Z,9.50
2023-02-27T17:34:18.230Z,5.50
2023-02-27T17:39:21.726Z,7.50
2023-02-27T17:44:25.137Z,7.65
2023-02-27T17:49:29.931Z,6.43
2023-02-27T17:59:37.777Z,7.75
2023-02-27T18:04:42.829Z,5.72
2023-02-27T18:09:47.031Z,7.30
2023-02-27T18:14:50.438Z,6.70
2023-02-27T18:19:55.783Z,7.37
2023-02-27T18:24:59.428Z,7.53
2023-02-27T18:30:03.812Z,8.03
2023-02-27T18:35:10.810Z,7.73
2023-02-27T18:40:15.905Z,9.30
2023-02-27T18:45:19.524Z,8.87
2023-02-27T18:50:25.441Z,8.33
2023-02-27T18:55:29.187Z,7.27
2023-02-27T19:00:32.625Z,10.23
2023-02-27T19:05:42.772Z,7.57
2023-02-27T19:10:46.240Z,9.27
2023-02-27T19:15:49.897Z,9.23
2023-02-27T19:20:56.464Z,10.10
2023-02-27T19:26:01.062Z,7.97
2023-02-27T19:31:08.638Z,10.17
2023-02-27T19:36:15.409Z,8.50
2023-02-27T19:41:19.152Z,7.33
2023-02-27T19:46:25.224Z,6.43
2023-02-27T19:51:30.558Z,7.47
2023-02-27T19:56:34.201Z,8.60
2023-02-27T20:01:39.062Z,8.87
2023-02-27T20:06:46.954Z,7.47
2023-02-27T20:11:54.016Z,8.13
2023-02-27T20:16:57.518Z,8.60
2023-02-27T20:22:02.483Z,8.73
2023-02-27T20:27:07.536Z,7.93
2023-02-27T20:32:11.126Z,8.83
2023-02-27T20:37:16.480Z,8.13
2023-02-27T20:42:19.949Z,7.53
2023-02-27T20:47:23.515Z,7.07
2023-02-27T20:52:28.312Z,9.53
2023-02-27T20:57:31.693Z,9.17
2023-02-27T21:02:35.166Z,7.03
2023-02-27T21:07:40.063Z,7.57
2023-02-27T21:12:45.229Z,8.70
2023-02-27T21:17:48.812Z,7.57
2023-02-27T21:22:56.010Z,7.50
2023-02-27T21:28:02.338Z,9.13
2023-02-27T21:33:06.341Z,7.73
2023-02-27T21:38:11.576Z,7.93
2023-02-27T21:43:15.099Z,8.20
2023-02-27T21:48:18.630Z,9.27
2023-02-27T21:53:23.389Z,8.07
2023-02-27T21:58:26.870Z,8.37
2023-02-27T22:03:35.124Z,8.07
2023-02-27T22:08:40.466Z,10.87
2023-02-27T22:13:43.967Z,9.60
2023-02-27T22:18:47.709Z,7.97
2023-02-27T22:23:53.182Z,10.00
2023-02-27T22:28:58.190Z,9.90
2023-02-27T22:34:04.099Z,13.47
2023-02-27T22:39:08.818Z,11.27
2023-02-27T22:44:14.951Z,14.23
2023-02-27T22:49:20.609Z,9.60
2023-02-27T22:54:25.646Z,10.40
2023-02-27T22:59:29.343Z,10.03
2023-02-27T23:04:32.789Z,10.00
2023-02-27T23:09:37.664Z,10.60
2023-02-27T23:14:40.996Z,12.20
2023-02-27T23:19:46.118Z,12.33
2023-02-27T23:24:50.861Z,12.80
2023-02-27T23:29:54.266Z,13.40
2023-02-27T23:34:57.612Z,13.03
2023-02-27T23:40:02.493Z,13.53
2023-02-27T23:45:07.374Z,12.70
2023-02-27T23:50:12.643Z,11.55
2023-02-27T23:55:18.501Z,11.80
